Detall de PIREP

Printer-friendly versionPDF version

[2013/04/28 11:08:00]
Flight IATA:CT2202
Pilot Number:012
Company ICAO:CAT
Aircraft Type:AT72/F
PAX:68
Departing Airport: LFMP
Destination Airport: LFBD
Alternate Airport:LFBO
Online: VATSIM
Route:ORBIL G36 GAI G39 SECHE R17 MIRBA
Flight Level:F180
No Slew and time accel
No pause
Crash detect
Detect pilot in Cockpit between each 30 and 45 minutes
11:08 Zero fuel Weight: 41389 Lbs, Fuel Weight: 5963 Lbs
11:08 VATSIM:LFMP 281100Z 30013KT 5000 BKN033 07/04 Q1014 NOSIG
11:08 VATSIM:LFBD 281100Z AUTO 03011KT 9999 BKN040 BKN046 BKN056 12/02 Q1016
11:08 VOICE CATALONIAN
11:08 Parking Brakes off
11:11 Take-off
11:11 Take off Weight: 47309 Lbs
11:11 Wind: 302º @ 013 Knots Heading: 325º
11:11 POS N42º 44´ 44´´ E002º 52´ 06´´
11:11 Gear Up: 128 Knots
11:11 Flaps:1 at 128 Knots
11:12 Flaps:0 at 156 Knots
11:24 TOC
11:24 Fuel Weight: 5487 Lb
11:26 Wind:243º@045 Knots Heading: 316º Ground Speed: 240 Knots Altitude 18018 ft
11:41 Wind:148º@005 Knots Heading: 296º Ground Speed: 278 Knots Altitude 18031 ft
11:49 TOD
11:49 Fuel Weight: 4758 Lb
11:56 Wind:065º@013 Knots Heading: 257º Ground Speed: 268 Knots Altitude 8920 ft
12:09 Flaps:1 at 178 Knots
12:09 Gear Down: 156 Knots
12:10 Flaps:2 at 152 Knots
12:11 Wind:034º@011 Knots Heading: 042º Ground Speed: 114 Knots Altitude 780 ft
12:12 TouchDown:Rate -106 ft/min Speed: 110 Knots
12:12 VATSIM:LFBD 281200Z AUTO 04013KT 350V070 9999 FEW049 BKN062 13/M00 Q1016
12:12 Land
12:12 Wind:034º@011 Knots
12:12 Heading: 041º
12:12 Flight Duration: 01:01
12:12 Landing Weight: 45816 Lbs
12:12 POS N44º 49´ 43´´ W000º 42´ 54´´
12:14 Parking brakes on
12:14 Block to Block Duration: 01:06
12:14 Final Fuel: 4411 Lbls
12:14 Spent Fuel: 1552 Lbls
12:14 Flight Length: 243 NM
12:14 TOD Land Length: 85 NM

Exportar CSV

Powered by Drupal - Modified by Danger4k